sensor_id;sensor_type;location;lat;lon;timestamp;P1;durP1;ratioP1;P2;durP2;ratioP2
39094;SDS011;24840;47.508;19.376;2022-12-01T00:00:57;23.60;;;15.57;;
39094;SDS011;24840;47.508;19.376;2022-12-01T00:03:24;31.10;;;16.67;;
39094;SDS011;24840;47.508;19.376;2022-12-01T00:06:11;25.90;;;17.43;;
39094;SDS011;24840;47.508;19.376;2022-12-01T00:08:39;24.97;;;15.37;;
39094;SDS011;24840;47.508;19.376;2022-12-01T00:11:25;22.53;;;15.57;;
39094;SDS011;24840;47.508;19.376;2022-12-01T00:13:51;21.30;;;15.60;;
39094;SDS011;24840;47.508;19.376;2022-12-01T00:16:16;32.80;;;18.30;;
39094;SDS011;24840;47.508;19.376;2022-12-01T00:18:42;23.63;;;16.97;;
39094;SDS011;24840;47.508;19.376;2022-12-01T00:21:15;27.40;;;18.30;;
39094;SDS011;24840;47.508;19.376;2022-12-01T00:23:45;25.33;;;17.40;;
39094;SDS011;24840;47.508;19.376;2022-12-01T00:26:12;23.77;;;16.53;;
39094;SDS011;24840;47.508;19.376;2022-12-01T00:28:38;37.10;;;16.33;;
39094;SDS011;24840;47.508;19.376;2022-12-01T00:31:07;24.27;;;17.07;;
39094;SDS011;24840;47.508;19.376;2022-12-01T00:33:34;22.93;;;17.33;;
39094;SDS011;24840;47.508;19.376;2022-12-01T00:35:59;25.13;;;16.90;;
39094;SDS011;24840;47.508;19.376;2022-12-01T00:38:26;26.27;;;18.10;;
39094;SDS011;24840;47.508;19.376;2022-12-01T00:40:52;30.53;;;17.47;;
39094;SDS011;24840;47.508;19.376;2022-12-01T00:43:18;28.87;;;18.37;;
39094;SDS011;24840;47.508;19.376;2022-12-01T00:45:44;22.70;;;15.70;;
39094;SDS011;24840;47.508;19.376;2022-12-01T00:48:09;27.97;;;17.63;;
39094;SDS011;24840;47.508;19.376;2022-12-01T00:50:35;23.43;;;16.33;;
39094;SDS011;24840;47.508;19.376;2022-12-01T00:53:00;31.07;;;18.10;;
39094;SDS011;24840;47.508;19.376;2022-12-01T00:55:26;35.83;;;19.60;;
39094;SDS011;24840;47.508;19.376;2022-12-01T00:57:52;46.97;;;20.47;;
39094;SDS011;24840;47.508;19.376;2022-12-01T01:00:18;57.60;;;25.23;;
39094;SDS011;24840;47.508;19.376;2022-12-01T01:02:44;41.63;;;21.20;;
39094;SDS011;24840;47.508;19.376;2022-12-01T01:05:09;43.07;;;21.33;;
39094;SDS011;24840;47.508;19.376;2022-12-01T01:07:36;47.03;;;22.57;;
39094;SDS011;24840;47.508;19.376;2022-12-01T01:10:02;37.10;;;19.57;;
39094;SDS011;24840;47.508;19.376;2022-12-01T01:12:28;33.70;;;18.63;;
39094;SDS011;24840;47.508;19.376;2022-12-01T01:14:54;35.57;;;20.77;;
39094;SDS011;24840;47.508;19.376;2022-12-01T01:17:20;37.63;;;21.90;;
39094;SDS011;24840;47.508;19.376;2022-12-01T01:19:45;32.33;;;18.33;;
39094;SDS011;24840;47.508;19.376;2022-12-01T01:22:11;33.03;;;19.30;;
39094;SDS011;24840;47.508;19.376;2022-12-01T01:24:37;34.90;;;16.60;;
39094;SDS011;24840;47.508;19.376;2022-12-01T01:27:03;31.27;;;17.73;;
39094;SDS011;24840;47.508;19.376;2022-12-01T01:29:30;30.40;;;18.47;;
39094;SDS011;24840;47.508;19.376;2022-12-01T01:31:56;33.30;;;17.93;;
39094;SDS011;24840;47.508;19.376;2022-12-01T01:34:22;35.40;;;18.13;;
39094;SDS011;24840;47.508;19.376;2022-12-01T01:36:48;26.67;;;17.17;;
39094;SDS011;24840;47.508;19.376;2022-12-01T01:39:14;31.93;;;17.70;;
39094;SDS011;24840;47.508;19.376;2022-12-01T01:41:40;22.90;;;15.00;;
39094;SDS011;24840;47.508;19.376;2022-12-01T01:47:09;26.37;;;15.73;;
39094;SDS011;24840;47.508;19.376;2022-12-01T01:49:36;26.03;;;15.70;;
39094;SDS011;24840;47.508;19.376;2022-12-01T01:52:02;28.63;;;17.47;;
39094;SDS011;24840;47.508;19.376;2022-12-01T01:54:41;29.47;;;16.93;;
39094;SDS011;24840;47.508;19.376;2022-12-01T01:57:12;22.40;;;13.87;;
39094;SDS011;24840;47.508;19.376;2022-12-01T01:59:44;23.10;;;16.43;;
39094;SDS011;24840;47.508;19.376;2022-12-01T02:02:14;27.53;;;15.97;;
39094;SDS011;24840;47.508;19.376;2022-12-01T02:04:42;24.83;;;16.17;;
39094;SDS011;24840;47.508;19.376;2022-12-01T02:07:11;24.83;;;16.50;;
39094;SDS011;24840;47.508;19.376;2022-12-01T02:09:40;25.90;;;16.03;;
39094;SDS011;24840;47.508;19.376;2022-12-01T02:14:56;24.10;;;15.97;;
39094;SDS011;24840;47.508;19.376;2022-12-01T02:31:13;30.52;;;17.83;;
39094;SDS011;24840;47.508;19.376;2022-12-01T02:34:02;25.43;;;13.73;;
39094;SDS011;24840;47.508;19.376;2022-12-01T02:36:53;27.37;;;16.13;;
39094;SDS011;24840;47.508;19.376;2022-12-01T02:39:33;19.15;;;12.85;;
39094;SDS011;24840;47.508;19.376;2022-12-01T02:42:04;25.43;;;14.40;;
39094;SDS011;24840;47.508;19.376;2022-12-01T02:44:35;22.95;;;15.95;;
39094;SDS011;24840;47.508;19.376;2022-12-01T02:49:35;20.33;;;13.73;;
39094;SDS011;24840;47.508;19.376;2022-12-01T02:52:05;25.30;;;14.73;;
39094;SDS011;24840;47.508;19.376;2022-12-01T02:54:31;21.17;;;14.07;;
39094;SDS011;24840;47.508;19.376;2022-12-01T02:56:57;20.20;;;14.07;;
39094;SDS011;24840;47.508;19.376;2022-12-01T02:59:23;20.13;;;13.97;;
39094;SDS011;24840;47.508;19.376;2022-12-01T03:08:30;21.77;;;13.30;;
39094;SDS011;24840;47.508;19.376;2022-12-01T03:18:55;20.17;;;14.03;;
39094;SDS011;24840;47.508;19.376;2022-12-01T03:22:04;23.07;;;15.50;;
39094;SDS011;24840;47.508;19.376;2022-12-01T03:24:25;22.43;;;15.60;;
39094;SDS011;24840;47.508;19.376;2022-12-01T03:26:54;21.97;;;15.63;;
39094;SDS011;24840;47.508;19.376;2022-12-01T03:32:04;22.00;;;14.87;;
39094;SDS011;24840;47.508;19.376;2022-12-01T03:34:36;22.77;;;15.90;;
39094;SDS011;24840;47.508;19.376;2022-12-01T03:37:15;23.53;;;14.90;;
39094;SDS011;24840;47.508;19.376;2022-12-01T03:39:50;28.87;;;15.97;;
39094;SDS011;24840;47.508;19.376;2022-12-01T03:45:32;20.83;;;14.90;;
39094;SDS011;24840;47.508;19.376;2022-12-01T03:48:08;21.90;;;14.70;;
39094;SDS011;24840;47.508;19.376;2022-12-01T03:50:39;26.80;;;15.97;;
39094;SDS011;24840;47.508;19.376;2022-12-01T03:53:26;23.50;;;14.73;;
39094;SDS011;24840;47.508;19.376;2022-12-01T03:58:27;21.80;;;14.33;;
39094;SDS011;24840;47.508;19.376;2022-12-01T04:00:58;22.98;;;14.25;;
39094;SDS011;24840;47.508;19.376;2022-12-01T04:03:26;23.17;;;14.67;;
39094;SDS011;24840;47.508;19.376;2022-12-01T04:05:52;20.53;;;13.93;;
39094;SDS011;24840;47.508;19.376;2022-12-01T04:08:18;22.67;;;15.70;;
39094;SDS011;24840;47.508;19.376;2022-12-01T04:10:44;22.87;;;15.20;;
39094;SDS011;24840;47.508;19.376;2022-12-01T04:13:10;25.90;;;16.73;;
39094;SDS011;24840;47.508;19.376;2022-12-01T04:15:41;24.13;;;15.80;;
39094;SDS011;24840;47.508;19.376;2022-12-01T04:18:07;26.60;;;15.13;;
39094;SDS011;24840;47.508;19.376;2022-12-01T04:20:33;20.07;;;13.93;;
39094;SDS011;24840;47.508;19.376;2022-12-01T04:22:58;24.77;;;15.90;;
39094;SDS011;24840;47.508;19.376;2022-12-01T04:25:24;23.77;;;15.53;;
39094;SDS011;24840;47.508;19.376;2022-12-01T04:27:50;20.10;;;14.10;;
39094;SDS011;24840;47.508;19.376;2022-12-01T04:30:15;24.63;;;15.07;;
39094;SDS011;24840;47.508;19.376;2022-12-01T04:32:42;23.13;;;14.40;;
39094;SDS011;24840;47.508;19.376;2022-12-01T04:35:09;19.93;;;13.53;;
39094;SDS011;24840;47.508;19.376;2022-12-01T04:37:37;20.80;;;14.53;;
39094;SDS011;24840;47.508;19.376;2022-12-01T04:40:04;25.73;;;15.37;;
39094;SDS011;24840;47.508;19.376;2022-12-01T04:42:30;22.93;;;14.70;;
39094;SDS011;24840;47.508;19.376;2022-12-01T04:44:56;21.47;;;14.80;;
39094;SDS011;24840;47.508;19.376;2022-12-01T04:47:22;21.17;;;12.90;;
39094;SDS011;24840;47.508;19.376;2022-12-01T04:49:47;24.77;;;15.70;;
39094;SDS011;24840;47.508;19.376;2022-12-01T04:52:13;25.03;;;14.80;;
39094;SDS011;24840;47.508;19.376;2022-12-01T04:54:39;23.97;;;16.27;;
39094;SDS011;24840;47.508;19.376;2022-12-01T04:57:05;33.07;;;19.60;;
39094;SDS011;24840;47.508;19.376;2022-12-01T04:59:30;34.30;;;19.70;;
39094;SDS011;24840;47.508;19.376;2022-12-01T05:01:56;22.77;;;15.40;;
39094;SDS011;24840;47.508;19.376;2022-12-01T05:04:22;28.43;;;17.10;;
39094;SDS011;24840;47.508;19.376;2022-12-01T05:06:48;24.73;;;15.03;;
39094;SDS011;24840;47.508;19.376;2022-12-01T05:09:14;22.53;;;13.83;;
39094;SDS011;24840;47.508;19.376;2022-12-01T05:11:40;22.40;;;14.57;;
39094;SDS011;24840;47.508;19.376;2022-12-01T05:14:06;21.70;;;13.60;;
39094;SDS011;24840;47.508;19.376;2022-12-01T05:16:32;21.00;;;14.43;;
39094;SDS011;24840;47.508;19.376;2022-12-01T05:18:59;20.70;;;12.70;;
39094;SDS011;24840;47.508;19.376;2022-12-01T05:21:45;19.77;;;14.07;;
39094;SDS011;24840;47.508;19.376;2022-12-01T05:24:12;20.47;;;13.83;;
39094;SDS011;24840;47.508;19.376;2022-12-01T05:26:39;21.90;;;14.93;;
39094;SDS011;24840;47.508;19.376;2022-12-01T05:29:06;23.30;;;14.67;;
39094;SDS011;24840;47.508;19.376;2022-12-01T05:31:32;28.93;;;16.13;;
39094;SDS011;24840;47.508;19.376;2022-12-01T05:33:58;23.37;;;14.30;;
39094;SDS011;24840;47.508;19.376;2022-12-01T05:36:24;23.97;;;13.47;;
39094;SDS011;24840;47.508;19.376;2022-12-01T05:38:50;24.83;;;14.73;;
39094;SDS011;24840;47.508;19.376;2022-12-01T05:41:16;21.73;;;13.80;;
39094;SDS011;24840;47.508;19.376;2022-12-01T05:43:41;22.37;;;13.40;;
39094;SDS011;24840;47.508;19.376;2022-12-01T05:46:07;20.20;;;13.47;;
39094;SDS011;24840;47.508;19.376;2022-12-01T05:48:33;20.00;;;12.87;;
39094;SDS011;24840;47.508;19.376;2022-12-01T05:50:59;23.03;;;13.60;;
39094;SDS011;24840;47.508;19.376;2022-12-01T05:53:31;20.40;;;13.10;;
39094;SDS011;24840;47.508;19.376;2022-12-01T05:55:56;23.60;;;13.33;;
39094;SDS011;24840;47.508;19.376;2022-12-01T05:58:22;18.07;;;13.00;;
39094;SDS011;24840;47.508;19.376;2022-12-01T06:00:48;20.67;;;12.90;;
39094;SDS011;24840;47.508;19.376;2022-12-01T06:03:14;19.13;;;12.17;;
39094;SDS011;24840;47.508;19.376;2022-12-01T06:05:39;22.00;;;13.07;;
39094;SDS011;24840;47.508;19.376;2022-12-01T06:08:05;23.47;;;13.63;;
39094;SDS011;24840;47.508;19.376;2022-12-01T06:10:31;17.33;;;12.20;;
39094;SDS011;24840;47.508;19.376;2022-12-01T06:12:57;20.07;;;13.47;;
39094;SDS011;24840;47.508;19.376;2022-12-01T06:15:23;23.27;;;14.37;;
39094;SDS011;24840;47.508;19.376;2022-12-01T06:17:50;19.33;;;13.57;;
39094;SDS011;24840;47.508;19.376;2022-12-01T06:20:16;21.40;;;13.83;;
39094;SDS011;24840;47.508;19.376;2022-12-01T06:22:42;29.70;;;16.60;;
39094;SDS011;24840;47.508;19.376;2022-12-01T06:25:08;24.27;;;15.43;;
39094;SDS011;24840;47.508;19.376;2022-12-01T06:27:34;18.90;;;11.17;;
39094;SDS011;24840;47.508;19.376;2022-12-01T06:30:00;19.10;;;14.17;;
39094;SDS011;24840;47.508;19.376;2022-12-01T06:32:26;25.23;;;15.70;;
39094;SDS011;24840;47.508;19.376;2022-12-01T06:34:52;24.13;;;14.57;;
39094;SDS011;24840;47.508;19.376;2022-12-01T06:37:17;23.80;;;14.50;;
39094;SDS011;24840;47.508;19.376;2022-12-01T06:39:43;21.90;;;14.77;;
39094;SDS011;24840;47.508;19.376;2022-12-01T06:42:09;19.47;;;13.83;;
39094;SDS011;24840;47.508;19.376;2022-12-01T06:44:36;25.90;;;15.33;;
39094;SDS011;24840;47.508;19.376;2022-12-01T06:47:03;21.10;;;14.10;;
39094;SDS011;24840;47.508;19.376;2022-12-01T06:49:28;22.63;;;13.60;;
39094;SDS011;24840;47.508;19.376;2022-12-01T06:51:54;18.87;;;12.47;;
39094;SDS011;24840;47.508;19.376;2022-12-01T06:54:20;23.33;;;14.80;;
39094;SDS011;24840;47.508;19.376;2022-12-01T06:56:46;23.90;;;13.77;;
39094;SDS011;24840;47.508;19.376;2022-12-01T06:59:12;16.63;;;12.47;;
39094;SDS011;24840;47.508;19.376;2022-12-01T07:01:37;21.60;;;14.57;;
39094;SDS011;24840;47.508;19.376;2022-12-01T07:04:03;22.33;;;12.77;;
39094;SDS011;24840;47.508;19.376;2022-12-01T07:06:29;22.30;;;13.20;;
39094;SDS011;24840;47.508;19.376;2022-12-01T07:08:55;22.90;;;14.07;;
39094;SDS011;24840;47.508;19.376;2022-12-01T07:11:21;24.30;;;15.10;;
39094;SDS011;24840;47.508;19.376;2022-12-01T07:13:47;19.00;;;12.93;;
39094;SDS011;24840;47.508;19.376;2022-12-01T07:16:15;24.27;;;14.93;;
39094;SDS011;24840;47.508;19.376;2022-12-01T07:18:41;22.83;;;13.17;;
39094;SDS011;24840;47.508;19.376;2022-12-01T07:21:10;24.57;;;13.30;;
39094;SDS011;24840;47.508;19.376;2022-12-01T07:23:37;20.37;;;15.07;;
39094;SDS011;24840;47.508;19.376;2022-12-01T07:26:04;19.40;;;12.20;;
39094;SDS011;24840;47.508;19.376;2022-12-01T07:28:41;22.27;;;12.90;;
39094;SDS011;24840;47.508;19.376;2022-12-01T07:31:12;21.67;;;14.47;;
39094;SDS011;24840;47.508;19.376;2022-12-01T07:33:40;19.98;;;11.35;;
39094;SDS011;24840;47.508;19.376;2022-12-01T07:36:07;21.47;;;13.70;;
39094;SDS011;24840;47.508;19.376;2022-12-01T07:38:34;20.17;;;11.97;;
39094;SDS011;24840;47.508;19.376;2022-12-01T07:41:01;20.57;;;14.20;;
39094;SDS011;24840;47.508;19.376;2022-12-01T07:43:28;23.90;;;14.33;;
39094;SDS011;24840;47.508;19.376;2022-12-01T07:46:02;18.57;;;12.53;;
39094;SDS011;24840;47.508;19.376;2022-12-01T07:48:38;23.73;;;14.23;;
39094;SDS011;24840;47.508;19.376;2022-12-01T07:51:08;28.50;;;14.73;;
39094;SDS011;24840;47.508;19.376;2022-12-01T07:53:36;24.67;;;14.07;;
39094;SDS011;24840;47.508;19.376;2022-12-01T07:56:03;20.63;;;13.73;;
39094;SDS011;24840;47.508;19.376;2022-12-01T07:58:29;20.17;;;14.57;;
39094;SDS011;24840;47.508;19.376;2022-12-01T08:00:56;20.20;;;13.50;;
39094;SDS011;24840;47.508;19.376;2022-12-01T08:03:22;19.93;;;14.33;;
39094;SDS011;24840;47.508;19.376;2022-12-01T08:05:54;26.43;;;15.30;;
39094;SDS011;24840;47.508;19.376;2022-12-01T08:08:25;21.73;;;13.97;;
39094;SDS011;24840;47.508;19.376;2022-12-01T08:10:51;19.00;;;12.83;;
39094;SDS011;24840;47.508;19.376;2022-12-01T08:13:18;22.23;;;15.33;;
39094;SDS011;24840;47.508;19.376;2022-12-01T08:15:44;22.33;;;13.67;;
39094;SDS011;24840;47.508;19.376;2022-12-01T08:18:10;24.33;;;13.70;;
39094;SDS011;24840;47.508;19.376;2022-12-01T08:20:36;22.70;;;14.93;;
39094;SDS011;24840;47.508;19.376;2022-12-01T08:23:02;21.67;;;14.53;;
39094;SDS011;24840;47.508;19.376;2022-12-01T08:25:29;28.17;;;17.47;;
39094;SDS011;24840;47.508;19.376;2022-12-01T08:27:55;18.50;;;13.23;;
39094;SDS011;24840;47.508;19.376;2022-12-01T08:30:21;23.03;;;14.27;;
39094;SDS011;24840;47.508;19.376;2022-12-01T08:32:47;24.43;;;16.90;;
39094;SDS011;24840;47.508;19.376;2022-12-01T08:35:13;20.27;;;14.30;;
39094;SDS011;24840;47.508;19.376;2022-12-01T08:37:39;37.30;;;23.03;;
39094;SDS011;24840;47.508;19.376;2022-12-01T08:40:05;28.03;;;18.13;;
39094;SDS011;24840;47.508;19.376;2022-12-01T08:42:31;33.30;;;21.23;;
39094;SDS011;24840;47.508;19.376;2022-12-01T08:44:57;34.27;;;21.93;;
39094;SDS011;24840;47.508;19.376;2022-12-01T08:47:23;28.17;;;18.43;;
39094;SDS011;24840;47.508;19.376;2022-12-01T08:49:48;26.13;;;18.87;;
39094;SDS011;24840;47.508;19.376;2022-12-01T08:52:14;30.17;;;18.37;;
39094;SDS011;24840;47.508;19.376;2022-12-01T08:54:40;28.67;;;20.83;;
39094;SDS011;24840;47.508;19.376;2022-12-01T08:57:06;30.50;;;21.70;;
39094;SDS011;24840;47.508;19.376;2022-12-01T08:59:31;33.57;;;21.43;;
39094;SDS011;24840;47.508;19.376;2022-12-01T09:01:57;25.93;;;19.33;;
39094;SDS011;24840;47.508;19.376;2022-12-01T09:04:23;28.53;;;20.50;;
39094;SDS011;24840;47.508;19.376;2022-12-01T09:06:52;29.73;;;19.00;;
39094;SDS011;24840;47.508;19.376;2022-12-01T09:09:20;27.97;;;19.93;;
39094;SDS011;24840;47.508;19.376;2022-12-01T09:11:49;28.47;;;20.13;;
39094;SDS011;24840;47.508;19.376;2022-12-01T09:14:16;30.30;;;21.33;;
39094;SDS011;24840;47.508;19.376;2022-12-01T09:16:43;29.30;;;20.03;;
39094;SDS011;24840;47.508;19.376;2022-12-01T09:19:10;23.10;;;17.43;;
39094;SDS011;24840;47.508;19.376;2022-12-01T09:21:37;25.93;;;16.33;;
39094;SDS011;24840;47.508;19.376;2022-12-01T09:24:04;20.57;;;15.90;;
39094;SDS011;24840;47.508;19.376;2022-12-01T09:26:31;25.03;;;17.07;;
39094;SDS011;24840;47.508;19.376;2022-12-01T09:28:58;27.77;;;17.10;;
39094;SDS011;24840;47.508;19.376;2022-12-01T09:31:30;22.50;;;14.20;;
39094;SDS011;24840;47.508;19.376;2022-12-01T09:33:57;43.53;;;13.87;;
39094;SDS011;24840;47.508;19.376;2022-12-01T09:36:28;19.00;;;13.17;;
39094;SDS011;24840;47.508;19.376;2022-12-01T09:38:56;20.03;;;12.67;;
39094;SDS011;24840;47.508;19.376;2022-12-01T09:44:01;53.63;;;13.80;;
39094;SDS011;24840;47.508;19.376;2022-12-01T09:46:42;14.50;;;10.97;;
39094;SDS011;24840;47.508;19.376;2022-12-01T09:49:19;15.73;;;12.03;;
39094;SDS011;24840;47.508;19.376;2022-12-01T09:51:48;22.37;;;13.13;;
39094;SDS011;24840;47.508;19.376;2022-12-01T09:54:16;84.07;;;14.13;;
39094;SDS011;24840;47.508;19.376;2022-12-01T09:56:46;18.80;;;9.13;;
39094;SDS011;24840;47.508;19.376;2022-12-01T10:01:47;9.47;;;6.70;;
39094;SDS011;24840;47.508;19.376;2022-12-01T10:04:21;10.23;;;7.10;;
39094;SDS011;24840;47.508;19.376;2022-12-01T10:06:58;11.63;;;7.25;;
39094;SDS011;24840;47.508;19.376;2022-12-01T10:12:13;13.45;;;7.28;;
39094;SDS011;24840;47.508;19.376;2022-12-01T10:14:44;9.30;;;6.60;;
39094;SDS011;24840;47.508;19.376;2022-12-01T10:17:34;12.50;;;6.30;;
39094;SDS011;24840;47.508;19.376;2022-12-01T10:23:08;10.63;;;6.90;;
39094;SDS011;24840;47.508;19.376;2022-12-01T10:25:54;6.85;;;5.10;;
39094;SDS011;24840;47.508;19.376;2022-12-01T10:33:58;6.65;;;5.10;;
39094;SDS011;24840;47.508;19.376;2022-12-01T10:36:27;13.52;;;6.00;;
39094;SDS011;24840;47.508;19.376;2022-12-01T10:38:54;9.32;;;5.65;;
39094;SDS011;24840;47.508;19.376;2022-12-01T10:41:21;8.75;;;6.32;;
39094;SDS011;24840;47.508;19.376;2022-12-01T10:43:49;8.30;;;5.72;;
39094;SDS011;24840;47.508;19.376;2022-12-01T10:49:10;9.13;;;5.80;;
39094;SDS011;24840;47.508;19.376;2022-12-01T10:51:48;8.57;;;6.10;;
39094;SDS011;24840;47.508;19.376;2022-12-01T10:54:16;10.15;;;7.00;;
39094;SDS011;24840;47.508;19.376;2022-12-01T10:56:44;12.60;;;7.25;;
39094;SDS011;24840;47.508;19.376;2022-12-01T10:59:22;10.88;;;6.65;;
39094;SDS011;24840;47.508;19.376;2022-12-01T11:02:18;24.02;;;8.93;;
39094;SDS011;24840;47.508;19.376;2022-12-01T11:07:32;12.38;;;7.78;;
39094;SDS011;24840;47.508;19.376;2022-12-01T11:12:54;8.75;;;6.57;;
39094;SDS011;24840;47.508;19.376;2022-12-01T11:15:37;9.27;;;7.60;;
39094;SDS011;24840;47.508;19.376;2022-12-01T11:23:52;13.57;;;8.50;;
39094;SDS011;24840;47.508;19.376;2022-12-01T11:26:21;10.60;;;7.88;;
39094;SDS011;24840;47.508;19.376;2022-12-01T11:34:20;8.85;;;7.22;;
39094;SDS011;24840;47.508;19.376;2022-12-01T11:36:53;8.93;;;7.03;;
39094;SDS011;24840;47.508;19.376;2022-12-01T11:39:29;8.93;;;7.18;;
39094;SDS011;24840;47.508;19.376;2022-12-01T11:41:59;9.07;;;6.57;;
39094;SDS011;24840;47.508;19.376;2022-12-01T11:44:27;10.32;;;6.78;;
39094;SDS011;24840;47.508;19.376;2022-12-01T11:46:55;9.43;;;7.50;;
39094;SDS011;24840;47.508;19.376;2022-12-01T11:49:23;8.18;;;6.72;;
39094;SDS011;24840;47.508;19.376;2022-12-01T11:51:52;8.20;;;6.38;;
39094;SDS011;24840;47.508;19.376;2022-12-01T11:54:19;9.73;;;7.43;;
39094;SDS011;24840;47.508;19.376;2022-12-01T11:56:47;12.45;;;7.68;;
39094;SDS011;24840;47.508;19.376;2022-12-01T11:59:25;9.95;;;7.80;;
39094;SDS011;24840;47.508;19.376;2022-12-01T12:15:10;10.82;;;7.70;;
39094;SDS011;24840;47.508;19.376;2022-12-01T12:26:37;9.68;;;7.10;;
39094;SDS011;24840;47.508;19.376;2022-12-01T12:34:57;9.77;;;7.38;;
39094;SDS011;24840;47.508;19.376;2022-12-01T12:40:35;7.53;;;6.15;;
39094;SDS011;24840;47.508;19.376;2022-12-01T12:46:07;9.23;;;7.38;;
39094;SDS011;24840;47.508;19.376;2022-12-01T12:53:58;13.73;;;6.53;;
39094;SDS011;24840;47.508;19.376;2022-12-01T12:56:38;8.85;;;6.30;;
39094;SDS011;24840;47.508;19.376;2022-12-01T12:59:12;9.32;;;6.13;;
39094;SDS011;24840;47.508;19.376;2022-12-01T13:01:58;12.00;;;8.15;;
39094;SDS011;24840;47.508;19.376;2022-12-01T13:10:09;11.00;;;7.65;;
39094;SDS011;24840;47.508;19.376;2022-12-01T13:12:44;10.07;;;7.75;;
39094;SDS011;24840;47.508;19.376;2022-12-01T13:15:18;9.68;;;7.15;;
39094;SDS011;24840;47.508;19.376;2022-12-01T13:17:47;11.63;;;8.40;;
39094;SDS011;24840;47.508;19.376;2022-12-01T13:20:14;10.38;;;7.57;;
39094;SDS011;24840;47.508;19.376;2022-12-01T13:22:43;8.80;;;6.70;;
39094;SDS011;24840;47.508;19.376;2022-12-01T13:25:20;12.20;;;7.35;;
39094;SDS011;24840;47.508;19.376;2022-12-01T13:27:51;9.32;;;7.20;;
39094;SDS011;24840;47.508;19.376;2022-12-01T13:30:20;13.30;;;8.55;;
39094;SDS011;24840;47.508;19.376;2022-12-01T13:32:48;16.73;;;7.95;;
39094;SDS011;24840;47.508;19.376;2022-12-01T13:37:47;14.15;;;8.15;;
39094;SDS011;24840;47.508;19.376;2022-12-01T13:40:22;8.93;;;7.05;;
39094;SDS011;24840;47.508;19.376;2022-12-01T13:43:03;13.82;;;8.23;;
39094;SDS011;24840;47.508;19.376;2022-12-01T13:45:37;27.80;;;7.95;;
39094;SDS011;24840;47.508;19.376;2022-12-01T13:48:05;18.90;;;7.95;;
39094;SDS011;24840;47.508;19.376;2022-12-01T13:51:00;10.32;;;7.03;;
39094;SDS011;24840;47.508;19.376;2022-12-01T13:53:36;8.18;;;6.63;;
39094;SDS011;24840;47.508;19.376;2022-12-01T14:08:49;8.60;;;6.22;;
39094;SDS011;24840;47.508;19.376;2022-12-01T14:11:25;26.00;;;7.28;;
39094;SDS011;24840;47.508;19.376;2022-12-01T14:16:24;9.18;;;6.35;;
39094;SDS011;24840;47.508;19.376;2022-12-01T14:19:09;11.15;;;5.65;;
39094;SDS011;24840;47.508;19.376;2022-12-01T14:21:57;8.55;;;5.90;;
39094;SDS011;24840;47.508;19.376;2022-12-01T14:24:26;6.93;;;5.25;;
39094;SDS011;24840;47.508;19.376;2022-12-01T14:27:05;8.32;;;6.43;;
39094;SDS011;24840;47.508;19.376;2022-12-01T14:29:35;8.82;;;5.75;;
39094;SDS011;24840;47.508;19.376;2022-12-01T14:34:49;14.50;;;6.00;;
39094;SDS011;24840;47.508;19.376;2022-12-01T14:37:17;10.45;;;5.88;;
39094;SDS011;24840;47.508;19.376;2022-12-01T14:39:54;8.57;;;5.22;;
39094;SDS011;24840;47.508;19.376;2022-12-01T14:42:40;8.90;;;5.03;;
39094;SDS011;24840;47.508;19.376;2022-12-01T14:45:29;9.55;;;6.30;;
39094;SDS011;24840;47.508;19.376;2022-12-01T14:48:03;7.50;;;5.63;;
39094;SDS011;24840;47.508;19.376;2022-12-01T14:50:35;7.95;;;5.70;;
39094;SDS011;24840;47.508;19.376;2022-12-01T14:53:49;17.05;;;6.32;;
39094;SDS011;24840;47.508;19.376;2022-12-01T14:56:05;9.77;;;5.40;;
39094;SDS011;24840;47.508;19.376;2022-12-01T14:58:35;9.97;;;4.60;;
39094;SDS011;24840;47.508;19.376;2022-12-01T15:01:07;9.00;;;5.97;;
39094;SDS011;24840;47.508;19.376;2022-12-01T15:03:40;9.97;;;5.73;;
39094;SDS011;24840;47.508;19.376;2022-12-01T15:06:09;7.73;;;5.43;;
39094;SDS011;24840;47.508;19.376;2022-12-01T15:08:41;7.27;;;5.27;;
39094;SDS011;24840;47.508;19.376;2022-12-01T15:11:11;9.20;;;5.17;;
39094;SDS011;24840;47.508;19.376;2022-12-01T15:13:48;7.20;;;5.33;;
39094;SDS011;24840;47.508;19.376;2022-12-01T15:16:20;13.37;;;6.13;;
39094;SDS011;24840;47.508;19.376;2022-12-01T15:18:47;8.67;;;4.40;;
39094;SDS011;24840;47.508;19.376;2022-12-01T15:21:21;7.00;;;4.90;;
39094;SDS011;24840;47.508;19.376;2022-12-01T15:23:57;7.73;;;5.27;;
39094;SDS011;24840;47.508;19.376;2022-12-01T15:26:25;8.68;;;4.78;;
39094;SDS011;24840;47.508;19.376;2022-12-01T15:31:43;5.80;;;4.40;;
39094;SDS011;24840;47.508;19.376;2022-12-01T15:34:16;6.33;;;4.57;;
39094;SDS011;24840;47.508;19.376;2022-12-01T15:36:45;8.30;;;6.10;;
39094;SDS011;24840;47.508;19.376;2022-12-01T15:39:13;7.67;;;5.27;;
39094;SDS011;24840;47.508;19.376;2022-12-01T15:41:42;5.50;;;4.60;;
39094;SDS011;24840;47.508;19.376;2022-12-01T15:44:20;6.67;;;5.50;;
39094;SDS011;24840;47.508;19.376;2022-12-01T15:46:57;7.20;;;5.17;;
39094;SDS011;24840;47.508;19.376;2022-12-01T15:49:24;12.30;;;4.77;;
39094;SDS011;24840;47.508;19.376;2022-12-01T15:51:53;9.07;;;5.63;;
39094;SDS011;24840;47.508;19.376;2022-12-01T15:57:01;14.17;;;11.37;;
39094;SDS011;24840;47.508;19.376;2022-12-01T16:05:26;6.60;;;4.73;;
39094;SDS011;24840;47.508;19.376;2022-12-01T16:07:47;6.97;;;5.00;;
39094;SDS011;24840;47.508;19.376;2022-12-01T16:10:29;18.20;;;11.47;;
39094;SDS011;24840;47.508;19.376;2022-12-01T16:15:59;13.20;;;7.67;;
39094;SDS011;24840;47.508;19.376;2022-12-01T16:18:30;9.10;;;6.40;;
39094;SDS011;24840;47.508;19.376;2022-12-01T16:21:01;10.35;;;6.68;;
39094;SDS011;24840;47.508;19.376;2022-12-01T16:23:28;11.47;;;8.67;;
39094;SDS011;24840;47.508;19.376;2022-12-01T16:25:54;10.23;;;6.60;;
39094;SDS011;24840;47.508;19.376;2022-12-01T16:30:48;14.77;;;10.43;;
39094;SDS011;24840;47.508;19.376;2022-12-01T16:33:15;17.47;;;11.30;;
39094;SDS011;24840;47.508;19.376;2022-12-01T16:35:46;40.85;;;28.42;;
39094;SDS011;24840;47.508;19.376;2022-12-01T16:38:31;16.97;;;11.97;;
39094;SDS011;24840;47.508;19.376;2022-12-01T16:41:00;8.03;;;5.90;;
39094;SDS011;24840;47.508;19.376;2022-12-01T16:43:37;13.90;;;8.80;;
39094;SDS011;24840;47.508;19.376;2022-12-01T16:46:04;10.33;;;7.57;;
39094;SDS011;24840;47.508;19.376;2022-12-01T16:48:34;9.83;;;6.53;;
39094;SDS011;24840;47.508;19.376;2022-12-01T16:51:02;8.47;;;6.37;;
39094;SDS011;24840;47.508;19.376;2022-12-01T16:53:29;8.77;;;5.33;;
39094;SDS011;24840;47.508;19.376;2022-12-01T16:55:56;7.70;;;5.73;;
39094;SDS011;24840;47.508;19.376;2022-12-01T16:58:23;9.67;;;6.43;;
39094;SDS011;24840;47.508;19.376;2022-12-01T17:00:49;9.33;;;6.70;;
39094;SDS011;24840;47.508;19.376;2022-12-01T17:03:19;11.80;;;9.17;;
39094;SDS011;24840;47.508;19.376;2022-12-01T17:05:50;9.00;;;6.70;;
39094;SDS011;24840;47.508;19.376;2022-12-01T17:08:16;7.93;;;6.27;;
39094;SDS011;24840;47.508;19.376;2022-12-01T17:10:44;10.13;;;7.77;;
39094;SDS011;24840;47.508;19.376;2022-12-01T17:13:10;9.27;;;6.60;;